Pembroke, Canada
Current Conditions -  °F | °C
As of 6:00 AM on Saturday 20 Dec 2014 (Local Time) from CYWA Reporting Station
Clear Clear  
Wind Chill:   Ceiling: Unl
Heat Index:   Visibility: 9mi
Dew Point: -2°   Wind: 3mph
Humidity: 92%   Direction: 260°W
Pressure: 30.31"   Gusts: NA
Location:  45.83°N, 77.11°W
Report Text: CYWA 201100Z AUTO 26003KT 9SM CLR M18/M19 A3031 RMK SLP276
Loading
Personal Weather Stations






























Interactive Weather Map New forecast layout! Learn more

10-Day Weather Forecast

Advertisements
Track Severe Weather on mobile